avis per tempestes more information blitzortung!


avis per Pluja more information rain snow radar


Visita la nostra xarxa de llocs de meteo:

Template documentation
and downloads

And another site



Thunderstorms From: 18-09-2018 09:00 Until: 19-09-2018 20:59 warning for: Thunderstorms Level: Yellow info button
Rain From: 18-09-2018 09:00 Until: 19-09-2018 20:59 warning for: Rain Level: Yellow info button

Pagina Historial Weather Underground text

Diari Resum Octubre 21, 2017 Unitats:  Imperial    Mètric   Tant
« Previous Dia
SegĂźent Dia »
Diari Setmana Mensual Anual Personalitzada
  Maxima: Minima: Media:
Temperatura: TemperatureC °F 13.1 °F 20 °F
Punt de rosada: DewpointC °F 8.0 °F 14.1 °F
Humitat: Humidity % 53 % 69 %
Wind Speed: WindSpeedKMH mph 0.0 mph 4.2 mph
RĂ fegues de vent: WindSpeedGustKMH mph - -
Vent:- - South
Pression baro: PressurehPa in 1018.8 in -
Precipitacions: 0.0 in    
Historical Graphs
 
 
Dades de taula per Octubre 21, 2017
Temps Temperatura Punt de rosada Pression baro Vent Wind Speed RĂ fegues de vent Humitat Rainfall Rate (Hourly)
TemperatureC °F DewpointC °F PressurehPa in Calm     Humidity % HourlyPrecipMM in
00:03 16.1 °F 13.6 °F 1020.9 in NNW 3.7 mph 3.7 mph 85 % 0.0 in
03:50 13.1 °F 12.0 °F 1019.9 in Calm     93 % 0.0 in
04:00 13.3 °F 12.2 °F 1019.9 in Calm     93 % 0.0 in
04:10 13.4 °F 12.1 °F 1019.9 in NNE 3.2 mph 4.8 mph 92 % 0.0 in
04:20 13.9 °F 12.6 °F 1019.9 in Calm   4.8 mph 92 % 0.0 in
04:30 14.3 °F 12.8 °F 1020.9 in ENE 1.6 mph 3.2 mph 91 % 0.0 in
04:40 14.6 °F 13.0 °F 1020.9 in East 3.2 mph 6.4 mph 90 % 0.0 in
04:50 14.8 °F 12.8 °F 1020.9 in ESE 3.2 mph 4.8 mph 88 % 0.0 in
05:00 15.5 °F 13.3 °F 1020.9 in East 1.6 mph 3.2 mph 87 % 0.0 in
10:10 16.0 °F 13.5 °F 1020.9 in SW 3.7 mph 3.7 mph 85 % 0.0 in
10:11 16.1 °F 13.6 °F 1020.9 in SW 1.9 mph   85 % 0.0 in
10:13 16.4 °F 13.9 °F 1020.9 in Calm     85 % 0.0 in
10:18 16.4 °F 13.7 °F 1020.9 in SW 3.7 mph 3.7 mph 84 % 0.0 in
10:23 16.5 °F 13.8 °F 1020.9 in SSW 3.7 mph   84 % 0.0 in
10:28 17.3 °F 14.2 °F 1021.9 in ESE 3.7 mph 3.7 mph 82 % 0.0 in
10:33 17.6 °F 14.3 °F 1021.9 in NNE 3.9 mph 3.9 mph 81 % 0.0 in
10:38 17.6 °F 14.3 °F 1021.9 in ENE 3.7 mph 3.7 mph 81 % 0.0 in
10:43 17.4 °F 13.9 °F 1021.9 in ESE 3.7 mph 4.2 mph 80 % 0.0 in
10:48 17.7 °F 14.2 °F 1021.9 in ESE 3.7 mph 3.7 mph 80 % 0.0 in
10:53 18.4 °F 14.7 °F 1021.9 in South 3.7 mph 3.7 mph 79 % 0.0 in
10:58 18.5 °F 14.8 °F 1021.9 in ENE 3.7 mph 3.7 mph 79 % 0.0 in
11:03 18.9 °F 15.0 °F 1021.9 in SSE 3.7 mph 3.7 mph 78 % 0.0 in
11:08 19.3 °F 15.2 °F 1021.9 in SE 1.9 mph   77 % 0.0 in
11:13 19.4 °F 15.1 °F 1021.9 in ESE 3.9 mph 3.9 mph 76 % 0.0 in
11:18 19.3 °F 15.2 °F 1021.9 in NE 2.3 mph 2.3 mph 77 % 0.0 in
11:23 19.6 °F 15.4 °F 1021.9 in ENE 3.7 mph 3.7 mph 77 % 0.0 in
11:28 19.6 °F 15.4 °F 1021.9 in NNE 1.9 mph 1.9 mph 77 % 0.0 in
11:33 19.7 °F 15.3 °F 1021.9 in ENE 3.7 mph 3.7 mph 76 % 0.0 in
11:38 20.0 °F 15.4 °F 1021.9 in ENE 3.7 mph 3.7 mph 75 % 0.0 in
11:43 19.9 °F 14.9 °F 1021.9 in East 5.6 mph 5.6 mph 73 % 0.0 in
11:48 20.1 °F 15.1 °F 1021.9 in East 4.7 mph 4.7 mph 73 % 0.0 in
11:53 20.2 °F 15.4 °F 1021.9 in ESE 5.6 mph 5.6 mph 74 % 0.0 in
11:58 20.3 °F 15.3 °F 1021.9 in NNE 5.6 mph 5.6 mph 73 % 0.0 in
12:03 20.2 °F 15.2 °F 1021.9 in NE 3.7 mph 3.7 mph 73 % 0.0 in
12:08 20.4 °F 15.2 °F 1021.9 in ENE 3.7 mph 3.7 mph 72 % 0.0 in
12:13 20.7 °F 15.4 °F 1021.9 in NE 5.6 mph 5.6 mph 72 % 0.0 in
12:18 20.5 °F 15.1 °F 1021.9 in ENE 3.7 mph 3.7 mph 71 % 0.0 in
12:23 20.9 °F 15.4 °F 1021.9 in ESE 7.4 mph 7.4 mph 71 % 0.0 in
12:28 20.9 °F 14.8 °F 1021.9 in ESE 9.3 mph 9.3 mph 68 % 0.0 in
12:30 24.0 °F 14.7 °F 1018.8 in SW 3.2 mph 4.8 mph 56 % 0.0 in
12:33 20.7 °F 15.1 °F 1021.9 in NNE 5.8 mph 5.8 mph 70 % 0.0 in
12:38 21.1 °F 15.4 °F 1021.9 in ENE 7.4 mph 7.4 mph 70 % 0.0 in
12:40 24.0 °F 14.7 °F 1018.8 in SW 4.8 mph 9.7 mph 56 % 0.0 in
12:43 21.3 °F 15.4 °F 1021.9 in East 3.7 mph 3.7 mph 69 % 0.0 in
12:48 21.5 °F 15.6 °F 1021.9 in ENE 7.9 mph 7.9 mph 69 % 0.0 in
12:53 21.5 °F 15.3 °F 1021.9 in NNE 5.8 mph 5.8 mph 68 % 0.0 in
12:58 21.7 °F 15.6 °F 1020.9 in ESE 5.3 mph 5.3 mph 68 % 0.0 in
13:03 21.8 °F 15.2 °F 1020.9 in ESE 5.6 mph 5.6 mph 66 % 0.0 in
13:08 22.2 °F 15.1 °F 1020.9 in SSE 3.7 mph   64 % 0.0 in
13:13 22.2 °F 15.3 °F 1020.9 in East 7.4 mph 7.4 mph 65 % 0.0 in
13:18 22.2 °F 15.1 °F 1020.9 in ENE 5.6 mph 5.6 mph 64 % 0.0 in
13:23 22.4 °F 15.3 °F 1020.9 in ENE 6.4 mph 6.4 mph 64 % 0.0 in
13:28 22.4 °F 15.5 °F 1019.9 in NW 5.6 mph 5.6 mph 65 % 0.0 in
13:33 22.9 °F 15.7 °F 1019.9 in NNW 2.6 mph   64 % 0.0 in
13:38 23.0 °F 14.8 °F 1019.9 in NW 7.4 mph 7.4 mph 60 % 0.0 in
13:43 23.0 °F 14.6 °F 1019.9 in SE 5.6 mph 5.6 mph 59 % 0.0 in
13:48 23.2 °F 15.0 °F 1019.9 in ESE 4.7 mph 4.7 mph 60 % 0.0 in
13:53 23.1 °F 14.9 °F 1019.9 in ESE 5.6 mph 5.6 mph 60 % 0.0 in
13:58 23.4 °F 14.9 °F 1019.9 in SSW 3.7 mph 4.2 mph 59 % 0.0 in
14:03 23.9 °F 15.1 °F 1019.9 in SE 7.4 mph 7.4 mph 58 % 0.0 in
14:08 23.7 °F 15.2 °F 1019.9 in ENE 5.6 mph 5.6 mph 59 % 0.0 in
14:13 23.7 °F 15.2 °F 1019.9 in West 2.6 mph 2.6 mph 59 % 0.0 in
14:18 23.9 °F 15.4 °F 1019.9 in ENE 3.7 mph 3.7 mph 59 % 0.0 in
14:23 24.1 °F 15.6 °F 1019.9 in SE 7.4 mph 7.4 mph 59 % 0.0 in
14:28 24.3 °F 15.5 °F 1019.9 in WSW 9.3 mph 9.3 mph 58 % 0.0 in
14:33 24.3 °F 14.7 °F 1019.9 in South 5.6 mph 5.6 mph 55 % 0.0 in
14:38 24.3 °F 14.7 °F 1019.9 in South 5.6 mph 5.6 mph 55 % 0.0 in
14:43 24.4 °F 15.3 °F 1019.9 in WNW 5.0 mph 5.0 mph 57 % 0.0 in
14:48 24.6 °F 15.8 °F 1019.9 in SSW 9.3 mph 9.3 mph 58 % 0.0 in
14:53 24.7 °F 15.3 °F 1019.9 in SSW 5.6 mph 5.6 mph 56 % 0.0 in
14:58 24.4 °F 15.3 °F 1018.8 in SW 5.6 mph 5.6 mph 57 % 0.0 in
15:03 24.7 °F 15.1 °F 1018.8 in SE 5.8 mph 5.8 mph 55 % 0.0 in
15:08 24.6 °F 14.9 °F 1018.8 in South 5.6 mph 5.6 mph 55 % 0.0 in
15:13 24.9 °F 15.5 °F 1018.8 in WSW 7.4 mph 7.4 mph 56 % 0.0 in
15:18 25.0 °F 14.8 °F 1018.8 in SSE 4.7 mph 4.7 mph 53 % 0.0 in
15:23 25.2 °F 15.5 °F 1018.8 in WSW 9.3 mph 9.3 mph 55 % 0.0 in
15:28 25.3 °F 15.3 °F 1018.8 in South 7.4 mph 7.4 mph 54 % 0.0 in
15:33 25.1 °F 14.8 °F 1018.8 in ENE 3.9 mph 3.9 mph 53 % 0.0 in
15:38 24.8 °F 14.8 °F 1018.8 in SW 3.7 mph 3.7 mph 54 % 0.0 in
15:43 24.6 °F 14.7 °F 1018.8 in North 3.7 mph 3.7 mph 54 % 0.0 in
15:48 24.4 °F 14.5 °F 1018.8 in SSE 3.7 mph 3.7 mph 54 % 0.0 in
15:53 24.1 °F 13.9 °F 1018.8 in ESE 4.7 mph 4.7 mph 53 % 0.0 in
15:58 24.0 °F 13.8 °F 1018.8 in ESE 9.3 mph 9.3 mph 53 % 0.0 in
15:59 24.0 °F 13.8 °F 1018.8 in ESE 9.3 mph 9.3 mph 53 % 0.0 in
16:04 23.9 °F 14.0 °F 1018.8 in NNE 8.7 mph 8.7 mph 54 % 0.0 in
16:09 23.7 °F 14.1 °F 1018.8 in ESE 13.0 mph 13.0 mph 55 % 0.0 in
16:14 23.8 °F 14.2 °F 1018.8 in ESE 14.8 mph 14.8 mph 55 % 0.0 in
16:19 23.7 °F 14.1 °F 1018.8 in ESE 11.1 mph 11.1 mph 55 % 0.0 in
16:29 23.9 °F 14.3 °F 1018.8 in NE 9.0 mph 9.0 mph 55 % 0.0 in
16:34 23.9 °F 14.0 °F 1018.8 in ESE 7.4 mph 7.4 mph 54 % 0.0 in
16:39 23.9 °F 14.3 °F 1018.8 in ESE 6.1 mph 6.1 mph 55 % 0.0 in
16:44 23.8 °F 14.2 °F 1018.8 in East 5.6 mph 5.6 mph 55 % 0.0 in
16:49 24.3 °F 14.7 °F 1018.8 in South 5.6 mph 5.6 mph 55 % 0.0 in
16:54 24.3 °F 14.9 °F 1018.8 in SSW 5.0 mph 5.0 mph 56 % 0.0 in
16:59 24.3 °F 15.2 °F 1018.8 in WSW 6.9 mph 6.9 mph 57 % 0.0 in
17:04 24.5 °F 15.4 °F 1018.8 in SW 7.6 mph 7.6 mph 57 % 0.0 in
17:09 24.2 °F 14.9 °F 1018.8 in West 7.4 mph 7.4 mph 56 % 0.0 in
17:14 24.4 °F 15.1 °F 1018.8 in SW 11.1 mph 11.1 mph 56 % 0.0 in
17:19 24.4 °F 15.1 °F 1018.8 in West 9.3 mph 9.3 mph 56 % 0.0 in
17:41 23.9 °F 15.1 °F 1018.8 in SSW 5.6 mph 6.4 mph 58 % 0.0 in
17:46 23.7 °F 14.9 °F 1018.8 in South 9.3 mph 9.3 mph 58 % 0.0 in
17:51 23.4 °F 14.7 °F 1018.8 in SW 9.3 mph 9.3 mph 58 % 0.0 in
17:56 23.1 °F 14.4 °F 1018.8 in SW 13.0 mph 13.0 mph 58 % 0.0 in
18:01 22.9 °F 14.4 °F 1018.8 in SW 5.6 mph 5.6 mph 59 % 0.0 in
18:06 22.8 °F 14.4 °F 1018.8 in WSW 9.5 mph 9.5 mph 59 % 0.0 in
18:11 22.5 °F 14.1 °F 1019.9 in SW 5.6 mph 6.1 mph 59 % 0.0 in
18:16 22.3 °F 14.2 °F 1019.9 in SW 7.4 mph 7.4 mph 60 % 0.0 in
18:21 22.1 °F 13.9 °F 1019.9 in WSW 7.4 mph 7.4 mph 60 % 0.0 in
18:26 21.9 °F 14.3 °F 1019.9 in SW 7.4 mph 7.4 mph 62 % 0.0 in
18:31 21.8 °F 14.2 °F 1019.9 in SW 9.3 mph 9.3 mph 62 % 0.0 in
18:36 21.6 °F 14.3 °F 1019.9 in WSW 7.4 mph 7.4 mph 63 % 0.0 in
18:41 21.4 °F 14.3 °F 1019.9 in SSW 5.8 mph 5.8 mph 64 % 0.0 in
18:46 21.2 °F 14.1 °F 1019.9 in WSW 9.3 mph 9.3 mph 64 % 0.0 in
18:51 21.1 °F 14.3 °F 1019.9 in WSW 5.6 mph 5.6 mph 65 % 0.0 in
18:56 20.9 °F 14.3 °F 1019.9 in SW 6.9 mph 6.9 mph 66 % 0.0 in
19:01 20.8 °F 14.2 °F 1019.9 in WSW 5.6 mph 5.6 mph 66 % 0.0 in
19:06 20.7 °F 14.3 °F 1019.9 in South 9.3 mph 9.3 mph 67 % 0.0 in
19:11 20.6 °F 14.3 °F 1018.8 in SW 7.4 mph 7.4 mph 67 % 0.0 in
19:16 20.4 °F 14.3 °F 1018.8 in West 7.4 mph 7.4 mph 68 % 0.0 in
19:21 20.3 °F 14.2 °F 1018.8 in WSW 5.6 mph 5.6 mph 68 % 0.0 in
19:26 20.2 °F 14.1 °F 1019.9 in WSW 7.4 mph 7.4 mph 68 % 0.0 in
19:30 17.8 °F 14.9 °F 1021.9 in West 1.6 mph 3.2 mph 83 % 0.0 in
19:31 20.2 °F 14.3 °F 1019.9 in WSW 9.3 mph 9.3 mph 69 % 0.0 in
19:36 20.0 °F 14.1 °F 1019.9 in SW 3.9 mph 3.9 mph 69 % 0.0 in
19:40 17.9 °F 14.9 °F 1021.9 in Calm   1.6 mph 83 % 0.0 in
19:41 19.9 °F 14.5 °F 1019.9 in SW 4.7 mph 4.7 mph 71 % 0.0 in
19:46 19.8 °F 14.4 °F 1019.9 in WSW 3.7 mph 3.7 mph 71 % 0.0 in
19:50 17.9 °F 14.9 °F 1021.9 in WSW 1.6 mph 3.2 mph 83 % 0.0 in
19:51 19.7 °F 14.5 °F 1019.9 in West 3.7 mph 3.7 mph 72 % 0.0 in
19:56 19.6 °F 14.4 °F 1019.9 in SW 3.7 mph 3.7 mph 72 % 0.0 in
20:00 18.0 °F 14.9 °F 1022.9 in Calm   3.2 mph 82 % 0.0 in
20:01 19.6 °F 14.4 °F 1019.9 in SW 3.7 mph 3.7 mph 72 % 0.0 in
20:03 19.6 °F 14.6 °F 1019.9 in SW 1.9 mph 1.9 mph 73 % 0.0 in
20:08 19.5 °F 14.6 °F 1019.9 in West 2.3 mph 2.3 mph 73 % 0.0 in
20:10 17.9 °F 14.8 °F 1022.9 in West 1.6 mph 3.2 mph 82 % 0.0 in
20:18 19.4 °F 14.4 °F 1019.9 in Calm     73 % 0.0 in
20:20 17.9 °F 14.4 °F 1022.9 in NW 1.6 mph 4.8 mph 80 % 0.0 in
20:23 19.3 °F 14.3 °F 1019.9 in West 1.9 mph   73 % 0.0 in
20:28 19.3 °F 14.6 °F 1019.9 in NW 1.9 mph   74 % 0.0 in
20:30 17.8 °F 13.9 °F 1022.9 in West 3.2 mph 9.7 mph 78 % 0.0 in
20:33 19.2 °F 14.4 °F 1019.9 in Calm     74 % 0.0 in
20:38 19.2 °F 14.4 °F 1019.9 in NW 1.9 mph   74 % 0.0 in
20:43 19.2 °F 14.4 °F 1020.9 in West 3.7 mph 3.7 mph 74 % 0.0 in
20:45 18.0 °F 13.5 °F 1022.9 in West 3.2 mph 6.4 mph 75 % 0.0 in
20:48 19.1 °F 14.3 °F 1020.9 in West 3.7 mph 3.7 mph 74 % 0.0 in
20:53 19.0 °F 14.3 °F 1020.9 in WNW 1.9 mph 1.9 mph 74 % 0.0 in
20:55 17.9 °F 13.0 °F 1022.9 in West 1.6 mph 3.2 mph 73 % 0.0 in
20:58 19.0 °F 14.3 °F 1020.9 in Calm     74 % 0.0 in
21:03 18.9 °F 14.6 °F 1020.9 in Calm     76 % 0.0 in
21:05 17.8 °F 12.7 °F 1022.9 in WNW 1.6 mph 4.8 mph 72 % 0.0 in
21:08 18.8 °F 14.5 °F 1020.9 in West 1.9 mph 1.9 mph 76 % 0.0 in
21:13 18.8 °F 14.5 °F 1020.9 in WSW 5.0 mph 5.0 mph 76 % 0.0 in
21:15 17.7 °F 12.4 °F 1022.9 in WNW 1.6 mph 3.2 mph 71 % 0.0 in
21:18 18.9 °F 14.6 °F 1020.9 in West 3.9 mph 3.9 mph 76 % 0.0 in
21:23 18.9 °F 14.6 °F 1020.9 in West 5.6 mph 5.6 mph 76 % 0.0 in
21:25 17.4 °F 12.1 °F 1022.9 in WNW 3.2 mph 3.2 mph 71 % 0.0 in
21:28 18.9 °F 14.6 °F 1021.9 in West 5.0 mph 5.0 mph 76 % 0.0 in
21:33 18.8 °F 14.7 °F 1021.9 in WSW 3.7 mph 3.7 mph 77 % 0.0 in
21:35 17.4 °F 11.9 °F 1022.9 in West 1.6 mph 6.4 mph 70 % 0.0 in
21:38 18.7 °F 14.6 °F 1021.9 in ESE 1.9 mph   77 % 0.0 in
21:43 18.5 °F 14.6 °F 1020.9 in ESE 5.6 mph 5.6 mph 78 % 0.0 in
21:45 17.2 °F 11.7 °F 1022.9 in West 3.2 mph 4.8 mph 70 % 0.0 in
21:48 18.5 °F 14.4 °F 1020.9 in West 3.5 mph 3.5 mph 77 % 0.0 in
21:53 18.5 °F 14.6 °F 1020.9 in West 1.9 mph   78 % 0.0 in
21:58 18.4 °F 14.5 °F 1021.9 in Calm     78 % 0.0 in
22:03 18.3 °F 14.4 °F 1021.9 in Calm     78 % 0.0 in
22:05 17.1 °F 10.7 °F 1022.9 in Calm   9.7 mph 66 % 0.0 in
22:08 18.2 °F 14.3 °F 1021.9 in NE 2.6 mph 2.6 mph 78 % 0.0 in
22:13 18.1 °F 14.4 °F 1021.9 in ESE 6.1 mph 6.1 mph 79 % 0.0 in
22:15 17.0 °F 10.6 °F 1022.9 in Calm   1.6 mph 66 % 0.0 in
22:18 18.1 °F 14.4 °F 1021.9 in East 3.7 mph 3.7 mph 79 % 0.0 in
22:23 18.1 °F 14.4 °F 1021.9 in East 1.9 mph 1.9 mph 79 % 0.0 in
22:25 16.9 °F 10.5 °F 1022.9 in WSW 3.2 mph 4.8 mph 66 % 0.0 in
22:28 18.0 °F 14.3 °F 1021.9 in East 3.7 mph 3.7 mph 79 % 0.0 in
22:33 17.9 °F 14.2 °F 1021.9 in Calm     79 % 0.0 in
22:35 16.8 °F 9.9 °F 1022.9 in WSW 1.6 mph 6.4 mph 64 % 0.0 in
22:38 17.8 °F 14.1 °F 1021.9 in Calm     79 % 0.0 in
22:43 17.8 °F 14.3 °F 1021.9 in Calm     80 % 0.0 in
22:45 16.7 °F 9.6 °F 1022.9 in West 1.6 mph 3.2 mph 63 % 0.0 in
22:48 17.8 °F 14.3 °F 1021.9 in East 1.9 mph 1.9 mph 80 % 0.0 in
22:55 16.5 °F 9.4 °F 1022.9 in West 3.2 mph 6.4 mph 63 % 0.0 in
22:58 17.7 °F 14.4 °F 1020.9 in Calm     81 % 0.0 in
23:03 17.8 °F 14.5 °F 1020.9 in Calm     81 % 0.0 in
23:05 16.3 °F 9.2 °F 1023.9 in WSW 3.2 mph 3.2 mph 63 % 0.0 in
23:08 17.8 °F 14.5 °F 1020.9 in Calm     81 % 0.0 in
23:13 17.8 °F 14.5 °F 1020.9 in ENE 1.9 mph 1.9 mph 81 % 0.0 in
23:15 16.1 °F 9.1 °F 1023.9 in Calm   3.2 mph 63 % 0.0 in
23:18 17.8 °F 14.7 °F 1020.9 in Calm     82 % 0.0 in
23:23 17.7 °F 14.4 °F 1020.9 in Calm     81 % 0.0 in
23:25 16.0 °F 8.9 °F 1023.9 in Calm   3.2 mph 63 % 0.0 in
23:28 17.7 °F 14.6 °F 1021.9 in Calm     82 % 0.0 in
23:33 17.7 °F 14.6 °F 1021.9 in ENE 1.9 mph   82 % 0.0 in
23:35 15.8 °F 8.8 °F 1022.9 in WSW 4.8 mph 4.8 mph 63 % 0.0 in
23:38 17.7 °F 14.6 °F 1021.9 in Calm     82 % 0.0 in
23:43 17.6 °F 14.5 °F 1021.9 in Calm     82 % 0.0 in
23:45 15.6 °F 8.1 °F 1023.9 in West 3.2 mph 6.4 mph 61 % 0.0 in
23:48 17.6 °F 14.5 °F 1021.9 in Calm     82 % 0.0 in
23:53 17.6 °F 14.5 °F 1021.9 in Calm     82 % 0.0 in
23:55 15.5 °F 8.0 °F 1023.9 in West 1.6 mph 4.8 mph 61 % 0.0 in
23:58 17.7 °F 14.6 °F 1021.9 in ENE 2.6 mph 2.6 mph 82 % 0.0 in
Meteo Sesrovires
Elogis d' Weather Underground - 1.5 mb

Guio original per  Jim McMurry - jmcmurry@mwt.net Adaptat per a la plantilla per  Wim van der Kuil - Leuven-Template.eu

Trobareu la nostra informacio del temps tambe a:

Weather Underground

AWEKAS